Time;durP1;ratioP1;P1;durP2;ratioP2;P2;SDS_P1;SDS_P2;PMS_P1;PMS_P2;Temp;Humidity;BMP_temperature;BMP_pressure;BME280_temperature;BME280_humidity;BME280_pressure;Samples;Min_cycle;Max_cycle;Signal;HPM_P1;HPM_P2
2023/02/09 00:01:28;;;;;;;27.67;15.73;;;;;;;;;;5055740;28;20195;-67
2023/02/09 00:03:56;;;;;;;21.73;14.77;;;;;;;;;;5056477;28;20613;-67
2023/02/09 00:06:25;;;;;;;22.00;13.93;;;;;;;;;;5057256;28;20193;-67
2023/02/09 00:08:53;;;;;;;23.23;14.30;;;;;;;;;;5052604;28;20522;-67
2023/02/09 00:11:21;;;;;;;22.95;14.48;;;;;;;;;;5036913;28;20240;-81
2023/02/09 00:13:47;;;;;;;18.90;11.85;;;;;;;;;;5051576;28;20195;-66
2023/02/09 00:16:14;;;;;;;17.60;12.38;;;;;;;;;;5056170;28;20224;-67
2023/02/09 00:18:43;;;;;;;19.67;14.70;;;;;;;;;;5056355;28;20197;-67
2023/02/09 00:21:11;;;;;;;19.42;12.00;;;;;;;;;;5056096;28;20195;-67
2023/02/09 00:23:40;;;;;;;21.48;13.90;;;;;;;;;;5056388;28;20191;-67
2023/02/09 00:26:08;;;;;;;22.70;13.27;;;;;;;;;;5056298;28;20191;-67
2023/02/09 00:28:36;;;;;;;23.25;12.65;;;;;;;;;;5056466;28;20197;-67
2023/02/09 00:31:06;;;;;;;19.48;12.00;;;;;;;;;;5056093;28;20223;-66
2023/02/09 00:33:34;;;;;;;16.17;12.68;;;;;;;;;;5056219;28;20191;-67
2023/02/09 00:36:03;;;;;;;20.17;12.85;;;;;;;;;;5056099;28;20187;-66
2023/02/09 00:38:30;;;;;;;17.40;12.60;;;;;;;;;;5056189;28;20195;-68
2023/02/09 00:40:57;;;;;;;20.02;12.07;;;;;;;;;;5056006;28;20192;-67
2023/02/09 00:43:25;;;;;;;20.25;13.57;;;;;;;;;;5055879;28;20188;-67
2023/02/09 00:45:52;;;;;;;18.23;11.85;;;;;;;;;;5056006;28;20190;-67
2023/02/09 00:48:19;;;;;;;21.58;13.27;;;;;;;;;;5055462;28;20647;-66
2023/02/09 00:50:46;;;;;;;16.33;11.57;;;;;;;;;;5056422;28;20219;-67
2023/02/09 00:53:15;;;;;;;15.68;11.38;;;;;;;;;;5056021;28;20197;-67
2023/02/09 00:55:42;;;;;;;18.00;12.07;;;;;;;;;;5070543;28;20182;-67
2023/02/09 00:58:09;;;;;;;20.73;12.98;;;;;;;;;;5075107;28;20290;-67
2023/02/09 01:00:36;;;;;;;20.17;15.23;;;;;;;;;;5075393;28;20205;-67
2023/02/09 01:03:04;;;;;;;17.70;12.13;;;;;;;;;;5057247;28;20191;-67
2023/02/09 01:05:31;;;;;;;18.17;12.82;;;;;;;;;;5055231;28;20225;-67
2023/02/09 01:07:58;;;;;;;20.23;12.80;;;;;;;;;;5055212;28;20190;-67
2023/02/09 01:10:26;;;;;;;18.02;11.80;;;;;;;;;;5037868;28;20213;-67
2023/02/09 01:12:54;;;;;;;20.23;12.52;;;;;;;;;;5034712;28;20198;-67
2023/02/09 01:15:21;;;;;;;17.33;10.90;;;;;;;;;;5034575;28;20190;-67
2023/02/09 01:17:48;;;;;;;17.08;9.85;;;;;;;;;;5034042;28;20196;-67
2023/02/09 01:20:15;;;;;;;19.65;11.70;;;;;;;;;;5034062;28;20198;-67
2023/02/09 01:22:43;;;;;;;20.45;10.60;;;;;;;;;;5034083;28;20799;-68
2023/02/09 01:25:10;;;;;;;14.00;9.40;;;;;;;;;;5034258;28;20192;-67
2023/02/09 01:27:41;;;;;;;10.95;9.80;;;;;;;;;;5034740;28;20545;-67
2023/02/09 01:30:09;;;;;;;18.30;9.25;;;;;;;;;;5034256;28;20299;-67
2023/02/09 01:32:36;;;;;;;13.02;9.60;;;;;;;;;;5034205;28;20192;-67
2023/02/09 01:35:04;;;;;;;11.80;9.00;;;;;;;;;;5033709;28;20283;-67
2023/02/09 01:37:31;;;;;;;11.15;9.05;;;;;;;;;;5034178;28;20290;-67
2023/02/09 01:39:58;;;;;;;15.30;8.77;;;;;;;;;;5034803;28;20641;-67
2023/02/09 01:42:25;;;;;;;10.93;8.93;;;;;;;;;;5034888;28;20221;-67
2023/02/09 01:45:06;;;;;;;10.15;8.65;;;;;;;;;;5034794;28;20193;-67
2023/02/09 01:47:37;;;;;;;13.60;8.90;;;;;;;;;;5035000;28;20202;-67
2023/02/09 01:50:05;;;;;;;11.68;8.50;;;;;;;;;;5034672;28;20213;-67
2023/02/09 01:52:32;;;;;;;11.65;9.43;;;;;;;;;;5034736;28;20198;-67
2023/02/09 01:55:00;;;;;;;13.32;10.05;;;;;;;;;;5034710;28;20202;-67
2023/02/09 01:57:30;;;;;;;18.67;8.93;;;;;;;;;;5034667;28;20203;-67
2023/02/09 01:59:59;;;;;;;20.27;8.88;;;;;;;;;;5034851;28;20198;-67
2023/02/09 02:02:27;;;;;;;13.25;9.10;;;;;;;;;;5037515;28;20554;-67
2023/02/09 02:04:55;;;;;;;12.88;9.18;;;;;;;;;;5034252;28;20232;-67
2023/02/09 02:07:27;;;;;;;12.10;8.43;;;;;;;;;;5034445;28;20214;-67
2023/02/09 02:09:54;;;;;;;11.63;9.35;;;;;;;;;;5048274;28;20201;-67
2023/02/09 02:12:21;;;;;;;11.05;8.10;;;;;;;;;;5053959;28;20201;-67
2023/02/09 02:14:49;;;;;;;16.17;11.00;;;;;;;;;;5054176;28;20187;-67
2023/02/09 02:17:21;;;;;;;17.00;9.98;;;;;;;;;;5053871;28;20198;-67
2023/02/09 02:20:03;;;;;;;16.45;9.77;;;;;;;;;;5054759;28;20193;-67
2023/02/09 02:22:44;;;;;;;13.75;8.63;;;;;;;;;;5054323;28;20179;-67
2023/02/09 02:25:26;;;;;;;10.90;8.52;;;;;;;;;;5053733;28;20175;-67
2023/02/09 02:28:01;;;;;;;10.32;8.52;;;;;;;;;;5053750;28;20646;-67
2023/02/09 02:30:43;;;;;;;12.20;9.05;;;;;;;;;;5054024;28;20207;-66
2023/02/09 02:33:17;;;;;;;12.25;8.00;;;;;;;;;;5000360;28;20232;-66
2023/02/09 02:35:47;;;;;;;13.23;9.30;;;;;;;;;;5054157;28;20283;-66
2023/02/09 02:38:18;;;;;;;13.60;9.35;;;;;;;;;;5053635;28;20210;-66
2023/02/09 02:40:51;;;;;;;15.98;8.82;;;;;;;;;;5053732;28;20207;-66
2023/02/09 02:43:23;;;;;;;15.43;9.20;;;;;;;;;;5054112;28;20274;-66
2023/02/09 02:45:53;;;;;;;12.05;9.07;;;;;;;;;;5053408;28;20182;-67
2023/02/09 02:48:24;;;;;;;11.23;8.48;;;;;;;;;;5053974;28;20205;-67
2023/02/09 02:50:54;;;;;;;12.60;10.02;;;;;;;;;;5053567;28;20257;-67
2023/02/09 02:53:23;;;;;;;15.52;7.65;;;;;;;;;;5053624;28;20188;-67
2023/02/09 02:55:50;;;;;;;14.65;9.02;;;;;;;;;;5053975;28;20549;-67
2023/02/09 02:58:20;;;;;;;13.05;8.35;;;;;;;;;;5053618;28;20193;-67
2023/02/09 03:00:51;;;;;;;15.52;8.88;;;;;;;;;;5053735;28;20183;-67
2023/02/09 03:03:20;;;;;;;15.05;8.80;;;;;;;;;;5052519;28;20201;-67
2023/02/09 03:05:49;;;;;;;13.50;10.02;;;;;;;;;;5053038;28;20215;-67
2023/02/09 03:08:16;;;;;;;12.68;8.60;;;;;;;;;;5052153;28;20202;-67
2023/02/09 03:10:44;;;;;;;13.27;9.48;;;;;;;;;;5034912;28;20220;-67
2023/02/09 03:13:17;;;;;;;14.20;9.50;;;;;;;;;;5033520;28;20195;-67
2023/02/09 03:15:54;;;;;;;14.75;8.68;;;;;;;;;;5034054;28;20190;-67
2023/02/09 03:18:26;;;;;;;13.18;8.45;;;;;;;;;;5033155;28;20182;-65
2023/02/09 03:20:57;;;;;;;12.15;9.35;;;;;;;;;;5033991;28;20184;-64
2023/02/09 03:23:27;;;;;;;17.40;8.65;;;;;;;;;;5037696;28;20179;-64
2023/02/09 03:25:57;;;;;;;16.83;11.07;;;;;;;;;;5037517;28;20262;-64
2023/02/09 03:28:26;;;;;;;18.98;10.05;;;;;;;;;;5037707;28;20201;-64
2023/02/09 03:30:54;;;;;;;14.45;8.85;;;;;;;;;;5037228;28;20284;-65
2023/02/09 03:33:23;;;;;;;15.90;8.70;;;;;;;;;;5037041;28;20187;-65
2023/02/09 03:35:52;;;;;;;14.27;10.10;;;;;;;;;;5036847;28;20210;-64
2023/02/09 03:38:21;;;;;;;13.82;9.25;;;;;;;;;;5037027;28;20191;-65
2023/02/09 03:40:48;;;;;;;11.38;9.40;;;;;;;;;;5037139;28;20205;-66
2023/02/09 03:43:15;;;;;;;14.90;8.73;;;;;;;;;;5036953;28;20199;-66
2023/02/09 03:45:42;;;;;;;16.42;9.35;;;;;;;;;;5037037;28;20199;-66
2023/02/09 03:48:09;;;;;;;13.65;9.40;;;;;;;;;;5036805;28;20199;-66
2023/02/09 03:50:37;;;;;;;15.45;9.10;;;;;;;;;;5036885;28;20188;-67
2023/02/09 03:53:05;;;;;;;15.20;8.85;;;;;;;;;;5037171;28;20197;-67
2023/02/09 03:55:34;;;;;;;17.08;9.98;;;;;;;;;;5036518;28;20203;-67
2023/02/09 03:58:01;;;;;;;18.75;12.80;;;;;;;;;;5036646;28;20192;-67
2023/02/09 04:00:28;;;;;;;26.33;14.85;;;;;;;;;;5036585;28;20660;-65
2023/02/09 04:02:58;;;;;;;17.77;11.15;;;;;;;;;;5039438;28;20637;-65
2023/02/09 04:05:25;;;;;;;21.90;11.45;;;;;;;;;;5036308;28;20319;-64
2023/02/09 04:07:52;;;;;;;16.88;9.98;;;;;;;;;;5036609;28;20198;-64
2023/02/09 04:10:19;;;;;;;15.88;9.65;;;;;;;;;;5039385;28;20196;-64
2023/02/09 04:12:48;;;;;;;18.50;10.40;;;;;;;;;;5036166;28;20212;-64
2023/02/09 04:15:15;;;;;;;16.48;10.27;;;;;;;;;;5037034;28;20198;-64
2023/02/09 04:17:42;;;;;;;15.15;9.05;;;;;;;;;;5036589;28;20187;-64
2023/02/09 04:20:10;;;;;;;13.07;9.30;;;;;;;;;;5037074;28;20188;-64
2023/02/09 04:22:37;;;;;;;15.40;10.45;;;;;;;;;;5036403;28;20199;-64
2023/02/09 04:25:04;;;;;;;14.98;10.60;;;;;;;;;;5035972;28;20198;-64
2023/02/09 04:27:31;;;;;;;14.32;9.82;;;;;;;;;;5036286;28;20192;-64
2023/02/09 04:30:00;;;;;;;18.70;11.70;;;;;;;;;;5036312;28;20192;-64
2023/02/09 04:32:27;;;;;;;11.95;10.00;;;;;;;;;;5035617;28;20210;-64
2023/02/09 04:34:54;;;;;;;16.25;9.88;;;;;;;;;;5036414;28;20196;-64
2023/02/09 04:37:22;;;;;;;13.15;9.38;;;;;;;;;;5036098;28;20202;-64
2023/02/09 04:39:49;;;;;;;18.15;10.65;;;;;;;;;;5036184;28;20191;-64
2023/02/09 04:42:16;;;;;;;16.73;10.18;;;;;;;;;;5036322;28;20198;-64
2023/02/09 04:44:43;;;;;;;18.40;10.38;;;;;;;;;;5035817;28;20645;-63
2023/02/09 04:47:12;;;;;;;18.58;9.90;;;;;;;;;;5036210;28;20286;-64
2023/02/09 04:49:41;;;;;;;19.17;10.63;;;;;;;;;;5035563;28;20202;-64
2023/02/09 04:52:08;;;;;;;16.83;10.50;;;;;;;;;;5035478;28;20250;-64
2023/02/09 04:54:35;;;;;;;18.65;10.25;;;;;;;;;;5049987;28;20205;-65
2023/02/09 04:59:47;;;;;;;17.27;10.85;;;;;;;;;;5055016;28;20224;-65
2023/02/09 05:02:16;;;;;;;16.20;10.48;;;;;;;;;;5055050;28;20203;-65
2023/02/09 05:04:43;;;;;;;14.75;9.73;;;;;;;;;;5054597;28;20227;-65
2023/02/09 05:07:10;;;;;;;13.38;9.60;;;;;;;;;;5054521;28;20666;-65
2023/02/09 05:09:37;;;;;;;15.40;10.10;;;;;;;;;;5054572;28;20645;-66
2023/02/09 05:12:04;;;;;;;17.23;10.95;;;;;;;;;;5054897;28;20554;-64
2023/02/09 05:14:32;;;;;;;16.27;10.50;;;;;;;;;;5054903;28;20201;-63
2023/02/09 05:16:59;;;;;;;16.98;9.00;;;;;;;;;;5054445;28;20195;-64
2023/02/09 05:19:27;;;;;;;24.63;10.27;;;;;;;;;;5054866;28;20517;-64
2023/02/09 05:21:55;;;;;;;15.23;9.50;;;;;;;;;;5054847;28;20320;-64
2023/02/09 05:24:22;;;;;;;13.23;9.50;;;;;;;;;;5054312;28;20202;-64
2023/02/09 05:26:49;;;;;;;14.18;9.77;;;;;;;;;;5054821;28;20195;-64
2023/02/09 05:29:16;;;;;;;14.85;10.40;;;;;;;;;;5054907;28;20202;-64
2023/02/09 05:31:43;;;;;;;19.05;10.43;;;;;;;;;;5054902;28;20214;-64
2023/02/09 05:34:10;;;;;;;29.85;11.55;;;;;;;;;;5054882;28;20197;-64
2023/02/09 05:36:39;;;;;;;19.25;10.60;;;;;;;;;;5054905;28;20201;-68
2023/02/09 05:39:06;;;;;;;23.45;10.90;;;;;;;;;;5054352;28;20202;-64
2023/02/09 05:44:18;;;;;;;15.85;9.98;;;;;;;;;;5053370;28;20182;-65
2023/02/09 05:46:45;;;;;;;20.85;10.32;;;;;;;;;;5054154;28;20195;-63
2023/02/09 05:49:12;;;;;;;17.45;10.77;;;;;;;;;;5054456;28;20295;-64
2023/02/09 05:51:41;;;;;;;16.92;10.70;;;;;;;;;;5054623;28;20606;-64
2023/02/09 05:54:08;;;;;;;16.83;10.93;;;;;;;;;;5054269;28;20187;-64
2023/02/09 05:56:36;;;;;;;14.15;9.55;;;;;;;;;;5054105;28;20222;-63
2023/02/09 05:59:04;;;;;;;19.88;11.95;;;;;;;;;;5053970;28;20231;-66
2023/02/09 06:01:31;;;;;;;18.70;10.38;;;;;;;;;;5054332;28;20286;-65
2023/02/09 06:03:58;;;;;;;13.63;10.13;;;;;;;;;;5052047;28;20202;-66
2023/02/09 06:06:25;;;;;;;17.88;10.60;;;;;;;;;;5052750;28;20179;-65
2023/02/09 06:08:54;;;;;;;22.13;10.63;;;;;;;;;;5053811;28;20201;-65
2023/02/09 06:11:21;;;;;;;18.98;11.73;;;;;;;;;;5053824;28;20203;-65
2023/02/09 06:13:48;;;;;;;19.30;10.27;;;;;;;;;;5054229;28;20191;-65
2023/02/09 06:16:15;;;;;;;18.05;9.82;;;;;;;;;;5054333;28;20195;-65
2023/02/09 06:18:42;;;;;;;22.05;11.93;;;;;;;;;;5054090;28;20191;-63
2023/02/09 06:21:11;;;;;;;24.17;10.07;;;;;;;;;;5054161;28;20282;-64
2023/02/09 06:23:38;;;;;;;22.40;13.50;;;;;;;;;;5054010;28;20192;-65
2023/02/09 06:26:08;;;;;;;18.25;11.35;;;;;;;;;;5054068;28;20217;-65
2023/02/09 06:28:35;;;;;;;14.65;9.90;;;;;;;;;;5053913;28;20191;-65
2023/02/09 06:31:03;;;;;;;17.52;11.15;;;;;;;;;;5053647;28;20194;-64
2023/02/09 06:33:30;;;;;;;18.88;10.65;;;;;;;;;;5053833;28;20214;-65
2023/02/09 06:35:58;;;;;;;17.65;11.10;;;;;;;;;;5053513;28;20198;-65
2023/02/09 06:38:25;;;;;;;18.33;10.73;;;;;;;;;;5053498;28;20648;-64
2023/02/09 06:40:52;;;;;;;15.45;10.40;;;;;;;;;;5054095;28;20187;-64
2023/02/09 06:43:21;;;;;;;16.10;10.30;;;;;;;;;;5053744;28;20199;-65
2023/02/09 06:45:48;;;;;;;23.35;13.43;;;;;;;;;;5053743;28;20194;-65
2023/02/09 06:48:15;;;;;;;20.25;12.27;;;;;;;;;;5054100;28;20572;-65
2023/02/09 06:50:42;;;;;;;21.58;11.35;;;;;;;;;;5053410;28;20277;-64
2023/02/09 06:53:09;;;;;;;21.00;10.88;;;;;;;;;;5053181;28;20218;-65
2023/02/09 06:55:37;;;;;;;16.75;10.73;;;;;;;;;;5053256;28;20282;-65
2023/02/09 06:58:04;;;;;;;18.85;10.90;;;;;;;;;;5053064;28;20199;-65
2023/02/09 07:00:33;;;;;;;20.33;12.55;;;;;;;;;;5053517;28;20190;-64
2023/02/09 07:03:00;;;;;;;18.65;10.50;;;;;;;;;;5053435;28;20217;-65
2023/02/09 07:05:27;;;;;;;18.10;10.50;;;;;;;;;;5053678;28;20228;-65
2023/02/09 07:07:56;;;;;;;20.77;11.48;;;;;;;;;;5053460;28;20544;-64
2023/02/09 07:10:23;;;;;;;17.30;10.68;;;;;;;;;;5053323;28;20190;-64
2023/02/09 07:12:51;;;;;;;19.60;12.02;;;;;;;;;;5053378;28;20301;-64
2023/02/09 07:15:18;;;;;;;16.45;11.52;;;;;;;;;;5053423;28;20197;-64
2023/02/09 07:17:47;;;;;;;17.42;11.30;;;;;;;;;;5053608;28;20606;-65
2023/02/09 07:20:14;;;;;;;18.55;11.57;;;;;;;;;;5053234;28;20719;-65
2023/02/09 07:22:41;;;;;;;21.52;10.85;;;;;;;;;;5053481;28;20291;-65
2023/02/09 07:25:08;;;;;;;19.60;12.15;;;;;;;;;;5052929;28;20195;-64
2023/02/09 07:27:36;;;;;;;17.27;11.35;;;;;;;;;;5052953;28;20655;-64
2023/02/09 07:30:03;;;;;;;19.02;11.50;;;;;;;;;;5053138;28;20556;-65
2023/02/09 07:32:30;;;;;;;17.38;11.75;;;;;;;;;;5053151;28;20222;-65
2023/02/09 07:34:59;;;;;;;26.77;12.52;;;;;;;;;;5053323;28;20618;-64
2023/02/09 07:37:26;;;;;;;19.25;11.98;;;;;;;;;;5052910;28;20193;-65
2023/02/09 07:39:53;;;;;;;26.90;11.98;;;;;;;;;;5052810;28;20640;-64
2023/02/09 07:42:20;;;;;;;15.48;11.32;;;;;;;;;;5053128;28;20209;-65
2023/02/09 07:44:47;;;;;;;20.42;12.00;;;;;;;;;;5053134;28;20191;-64
2023/02/09 07:47:15;;;;;;;20.35;11.73;;;;;;;;;;5052692;28;20282;-65
2023/02/09 07:49:42;;;;;;;18.40;12.38;;;;;;;;;;5053254;28;20193;-65
2023/02/09 07:52:11;;;;;;;20.88;11.13;;;;;;;;;;5052830;28;20662;-64
2023/02/09 07:54:38;;;;;;;19.25;11.95;;;;;;;;;;5052839;28;20540;-65
2023/02/09 07:57:05;;;;;;;19.90;11.27;;;;;;;;;;5052958;28;20279;-64
2023/02/09 07:59:32;;;;;;;17.75;10.70;;;;;;;;;;5052875;28;20191;-64
2023/02/09 08:01:59;;;;;;;18.88;10.63;;;;;;;;;;5052927;28;20188;-63
2023/02/09 08:04:26;;;;;;;18.60;11.48;;;;;;;;;;5052349;28;20225;-63
2023/02/09 08:06:54;;;;;;;22.40;10.90;;;;;;;;;;5052944;28;20221;-64
2023/02/09 08:09:22;;;;;;;20.45;11.40;;;;;;;;;;5055555;28;20194;-63
2023/02/09 08:11:51;;;;;;;24.27;13.20;;;;;;;;;;5056261;28;20194;-63
2023/02/09 08:14:21;;;;;;;18.38;11.90;;;;;;;;;;5056498;28;20201;-63
2023/02/09 08:16:50;;;;;;;17.40;11.60;;;;;;;;;;5056765;28;20527;-63
2023/02/09 08:19:19;;;;;;;19.42;12.77;;;;;;;;;;5056322;28;20195;-63
2023/02/09 08:21:48;;;;;;;22.95;11.70;;;;;;;;;;5056381;28;20196;-63
2023/02/09 08:24:16;;;;;;;17.98;10.93;;;;;;;;;;5056324;28;20194;-63
2023/02/09 08:26:45;;;;;;;21.83;13.00;;;;;;;;;;5056544;28;20282;-63
2023/02/09 08:29:12;;;;;;;20.67;12.27;;;;;;;;;;5055895;28;20203;-64
2023/02/09 08:31:40;;;;;;;18.52;11.80;;;;;;;;;;5056239;28;20540;-63
2023/02/09 08:34:07;;;;;;;20.88;13.20;;;;;;;;;;5055682;28;20219;-63
2023/02/09 08:36:36;;;;;;;22.33;13.38;;;;;;;;;;5055791;28;20235;-65
2023/02/09 08:39:05;;;;;;;17.88;11.60;;;;;;;;;;5056108;28;20195;-63
2023/02/09 08:41:32;;;;;;;17.50;11.40;;;;;;;;;;5055999;28;20195;-65
2023/02/09 08:44:01;;;;;;;18.98;13.15;;;;;;;;;;5056061;28;20195;-63
2023/02/09 08:46:28;;;;;;;20.60;13.85;;;;;;;;;;5055929;28;20282;-63
2023/02/09 08:48:56;;;;;;;21.67;12.27;;;;;;;;;;5055595;28;20188;-63
2023/02/09 08:51:23;;;;;;;18.77;12.18;;;;;;;;;;5055427;28;20667;-63
2023/02/09 08:53:51;;;;;;;23.05;13.60;;;;;;;;;;5055396;28;20214;-63
2023/02/09 08:56:18;;;;;;;21.52;13.52;;;;;;;;;;5055831;28;20196;-63
2023/02/09 08:58:45;;;;;;;22.65;13.45;;;;;;;;;;5056475;28;20191;-63
2023/02/09 09:01:14;;;;;;;26.30;13.88;;;;;;;;;;5055100;28;20207;-64
2023/02/09 09:03:42;;;;;;;20.52;12.30;;;;;;;;;;5055526;28;20541;-64
2023/02/09 09:06:10;;;;;;;21.30;12.93;;;;;;;;;;5055455;28;20228;-64
2023/02/09 09:08:38;;;;;;;21.23;13.30;;;;;;;;;;5055295;28;20199;-63
2023/02/09 09:11:06;;;;;;;19.75;12.75;;;;;;;;;;5055131;28;20194;-64
2023/02/09 09:13:33;;;;;;;21.17;13.27;;;;;;;;;;5055304;28;20238;-63
2023/02/09 09:16:00;;;;;;;25.75;15.68;;;;;;;;;;5055325;28;20222;-63
2023/02/09 09:18:29;;;;;;;21.05;12.73;;;;;;;;;;5055232;28;20197;-63
2023/02/09 09:20:57;;;;;;;18.45;14.32;;;;;;;;;;5055262;28;20618;-63
2023/02/09 09:23:24;;;;;;;21.50;13.63;;;;;;;;;;5054896;28;20200;-64
2023/02/09 09:25:51;;;;;;;22.33;12.50;;;;;;;;;;5055046;28;20206;-63
2023/02/09 09:28:18;;;;;;;22.65;14.07;;;;;;;;;;5055437;28;20593;-64
2023/02/09 09:30:45;;;;;;;20.10;14.80;;;;;;;;;;5054701;28;20197;-63
2023/02/09 09:33:13;;;;;;;17.35;12.93;;;;;;;;;;5054771;28;20676;-64
2023/02/09 09:35:41;;;;;;;24.85;13.77;;;;;;;;;;5055205;28;20531;-63
2023/02/09 09:38:08;;;;;;;25.88;15.10;;;;;;;;;;5054999;28;20245;-63
2023/02/09 09:40:39;;;;;;;19.02;13.15;;;;;;;;;;5054835;28;20200;-64
2023/02/09 09:43:07;;;;;;;18.83;13.63;;;;;;;;;;5055409;28;20545;-63
2023/02/09 09:45:35;;;;;;;21.67;13.50;;;;;;;;;;5054371;28;20188;-63
2023/02/09 09:48:03;;;;;;;19.13;13.75;;;;;;;;;;5054430;28;20283;-63
2023/02/09 09:50:32;;;;;;;23.13;14.50;;;;;;;;;;5055288;28;20192;-64
2023/02/09 09:53:03;;;;;;;26.17;14.50;;;;;;;;;;5055028;28;20211;-63
2023/02/09 09:55:30;;;;;;;20.25;13.85;;;;;;;;;;5054282;28;20184;-64
2023/02/09 09:58:00;;;;;;;23.38;13.95;;;;;;;;;;5054345;28;20194;-63
2023/02/09 10:00:36;;;;;;;19.27;13.07;;;;;;;;;;5054501;28;20197;-64
2023/02/09 10:03:03;;;;;;;21.60;12.88;;;;;;;;;;5054293;28;20189;-63
2023/02/09 10:05:31;;;;;;;18.92;12.50;;;;;;;;;;5054032;28;20231;-64
2023/02/09 10:08:02;;;;;;;19.30;14.45;;;;;;;;;;5054774;28;20540;-64
2023/02/09 10:10:37;;;;;;;21.92;14.23;;;;;;;;;;5054135;28;20659;-64
2023/02/09 10:13:09;;;;;;;18.35;12.60;;;;;;;;;;5054643;28;20556;-63
2023/02/09 10:15:36;;;;;;;19.30;13.27;;;;;;;;;;5054535;28;20180;-64
2023/02/09 10:18:07;;;;;;;20.77;12.45;;;;;;;;;;5054236;28;20198;-63
2023/02/09 10:20:42;;;;;;;20.67;12.70;;;;;;;;;;5054409;28;20181;-64
2023/02/09 10:23:16;;;;;;;23.17;13.77;;;;;;;;;;5053897;28;20197;-63
2023/02/09 10:25:53;;;;;;;19.80;13.75;;;;;;;;;;5053776;28;20221;-64
2023/02/09 10:28:21;;;;;;;20.67;13.00;;;;;;;;;;5054637;28;20220;-63
2023/02/09 10:30:51;;;;;;;22.92;14.75;;;;;;;;;;5053410;28;20535;-64
2023/02/09 10:33:19;;;;;;;25.50;13.95;;;;;;;;;;5053600;28;20293;-64
2023/02/09 10:35:50;;;;;;;20.15;13.32;;;;;;;;;;5053497;28;20193;-64
2023/02/09 10:38:18;;;;;;;21.75;13.70;;;;;;;;;;5053647;28;20184;-63
2023/02/09 10:40:47;;;;;;;24.95;11.63;;;;;;;;;;5053590;28;20196;-63
2023/02/09 10:43:21;;;;;;;24.58;13.93;;;;;;;;;;5053705;28;20196;-63
2023/02/09 10:45:53;;;;;;;20.00;13.45;;;;;;;;;;5053859;28;20179;-64
2023/02/09 10:48:21;;;;;;;19.67;13.93;;;;;;;;;;5054276;28;20180;-64
2023/02/09 10:50:53;;;;;;;16.77;12.40;;;;;;;;;;5053666;28;20286;-63
2023/02/09 10:53:22;;;;;;;22.60;14.32;;;;;;;;;;5053189;28;20217;-64
2023/02/09 10:55:49;;;;;;;22.83;12.57;;;;;;;;;;5053619;28;20202;-64
2023/02/09 10:58:25;;;;;;;20.58;13.60;;;;;;;;;;5053443;28;20279;-64
2023/02/09 11:00:54;;;;;;;20.92;14.15;;;;;;;;;;5053682;28;20587;-65
2023/02/09 11:03:24;;;;;;;18.42;13.50;;;;;;;;;;5053167;28;20213;-64
2023/02/09 11:05:58;;;;;;;20.08;13.57;;;;;;;;;;5053607;28;20237;-64
2023/02/09 11:08:27;;;;;;;19.85;11.45;;;;;;;;;;5053447;28;20192;-64
2023/02/09 11:10:59;;;;;;;20.30;13.50;;;;;;;;;;5053140;28;20205;-65
2023/02/09 11:13:28;;;;;;;18.38;13.05;;;;;;;;;;5053367;28;20269;-65
2023/02/09 11:16:10;;;;;;;21.55;11.57;;;;;;;;;;5053004;28;20223;-64
2023/02/09 11:18:37;;;;;;;19.92;13.77;;;;;;;;;;5053284;28;20176;-62
2023/02/09 11:21:08;;;;;;;24.90;12.15;;;;;;;;;;5053016;28;20200;-64
2023/02/09 11:23:39;;;;;;;20.38;12.65;;;;;;;;;;5052887;28;20635;-65
2023/02/09 11:26:10;;;;;;;24.40;13.32;;;;;;;;;;5053259;28;20198;-64
2023/02/09 11:28:45;;;;;;;18.73;12.15;;;;;;;;;;5052806;28;20702;-63
2023/02/09 11:31:21;;;;;;;24.27;14.80;;;;;;;;;;5053260;28;20272;-63
2023/02/09 11:33:52;;;;;;;18.85;13.68;;;;;;;;;;5052971;28;20237;-63
2023/02/09 11:36:28;;;;;;;21.17;14.05;;;;;;;;;;5053485;28;20186;-63
2023/02/09 11:38:58;;;;;;;26.40;14.27;;;;;;;;;;5053121;28;20187;-64
2023/02/09 11:44:27;;;;;;;19.23;12.80;;;;;;;;;;5057244;28;20592;-65
2023/02/09 11:46:59;;;;;;;24.63;11.25;;;;;;;;;;5057083;28;20186;-65
2023/02/09 11:49:30;;;;;;;23.45;14.75;;;;;;;;;;5057096;28;20210;-63
2023/02/09 11:51:59;;;;;;;19.90;11.75;;;;;;;;;;5056846;28;20179;-64
2023/02/09 11:54:30;;;;;;;20.55;12.70;;;;;;;;;;5056740;28;20547;-64
2023/02/09 11:57:00;;;;;;;17.75;12.43;;;;;;;;;;5057156;28;20177;-65
2023/02/09 11:59:31;;;;;;;21.15;11.60;;;;;;;;;;5056900;28;20272;-64
2023/02/09 12:02:02;;;;;;;18.95;12.18;;;;;;;;;;5056954;28;20193;-65
2023/02/09 12:04:33;;;;;;;21.77;12.13;;;;;;;;;;5056894;28;20221;-64
2023/02/09 12:07:02;;;;;;;15.57;10.52;;;;;;;;;;5056343;28;20220;-66
2023/02/09 12:09:32;;;;;;;17.60;12.75;;;;;;;;;;5056627;28;20223;-62
2023/02/09 12:12:05;;;;;;;18.52;12.73;;;;;;;;;;5056763;28;20614;-63
2023/02/09 12:14:52;;;;;;;16.35;11.57;;;;;;;;;;5057064;28;20215;-63
2023/02/09 12:17:22;;;;;;;17.20;11.85;;;;;;;;;;5057223;28;20182;-63
2023/02/09 12:19:55;;;;;;;16.75;11.52;;;;;;;;;;5056199;28;20289;-62
2023/02/09 12:22:43;;;;;;;16.05;11.85;;;;;;;;;;5056691;28;20188;-63
2023/02/09 12:25:17;;;;;;;16.77;12.57;;;;;;;;;;5056356;28;20534;-63
2023/02/09 12:28:05;;;;;;;17.02;12.30;;;;;;;;;;5056240;28;20184;-64
2023/02/09 12:30:50;;;;;;;24.42;12.48;;;;;;;;;;5056569;28;20190;-63
2023/02/09 12:33:20;;;;;;;20.60;12.27;;;;;;;;;;5056131;28;20583;-63
2023/02/09 12:35:59;;;;;;;19.50;12.38;;;;;;;;;;5056471;28;20190;-63
2023/02/09 12:38:26;;;;;;;20.23;12.50;;;;;;;;;;5056353;28;20189;-63
2023/02/09 12:41:11;;;;;;;20.05;12.68;;;;;;;;;;5055807;28;20202;-64
2023/02/09 12:43:39;;;;;;;19.88;11.07;;;;;;;;;;5056421;28;20539;-63
2023/02/09 12:46:17;;;;;;;22.20;13.32;;;;;;;;;;5055634;28;20282;-62
2023/02/09 12:48:51;;;;;;;19.70;11.65;;;;;;;;;;5055908;28;20263;-64
2023/02/09 12:51:36;;;;;;;21.80;12.40;;;;;;;;;;5055641;28;20183;-63
2023/02/09 12:54:26;;;;;;;18.42;12.27;;;;;;;;;;5055070;28;20216;-63
2023/02/09 12:56:53;;;;;;;18.70;11.30;;;;;;;;;;5056048;28;20192;-63
2023/02/09 12:59:24;;;;;;;24.80;14.70;;;;;;;;;;5055572;28;20205;-63
2023/02/09 13:02:04;;;;;;;22.88;11.05;;;;;;;;;;5055939;28;20214;-65
2023/02/09 13:04:35;;;;;;;18.00;12.15;;;;;;;;;;5055251;28;20311;-64
2023/02/09 13:07:05;;;;;;;16.80;11.35;;;;;;;;;;5056030;28;20194;-64
2023/02/09 13:09:35;;;;;;;24.15;12.38;;;;;;;;;;5055500;28;20229;-64
2023/02/09 13:12:06;;;;;;;15.07;10.70;;;;;;;;;;5055194;28;20200;-64
2023/02/09 13:14:33;;;;;;;19.20;12.18;;;;;;;;;;5055630;28;20294;-64
2023/02/09 13:17:18;;;;;;;14.88;10.45;;;;;;;;;;5055522;28;20188;-64
2023/02/09 13:19:52;;;;;;;19.23;12.13;;;;;;;;;;5055281;28;20281;-64
2023/02/09 13:22:26;;;;;;;15.75;11.55;;;;;;;;;;5055691;28;20273;-64
2023/02/09 13:24:55;;;;;;;15.02;10.38;;;;;;;;;;5054882;28;20187;-64
2023/02/09 13:27:23;;;;;;;18.77;11.80;;;;;;;;;;5054849;28;20689;-64
2023/02/09 13:29:52;;;;;;;20.90;11.77;;;;;;;;;;5054771;28;20661;-64
2023/02/09 13:32:26;;;;;;;15.98;11.00;;;;;;;;;;5055093;28;20194;-64
2023/02/09 13:34:57;;;;;;;21.10;10.65;;;;;;;;;;5055103;28;20231;-64
2023/02/09 13:37:27;;;;;;;19.42;11.30;;;;;;;;;;5055185;28;20237;-64
2023/02/09 13:39:56;;;;;;;15.27;10.93;;;;;;;;;;5054668;28;20276;-64
2023/02/09 13:42:25;;;;;;;17.95;11.32;;;;;;;;;;5054941;28;20201;-64
2023/02/09 13:44:53;;;;;;;17.48;10.10;;;;;;;;;;5054533;28;20653;-64
2023/02/09 13:47:20;;;;;;;15.73;11.20;;;;;;;;;;5054522;28;20539;-64
2023/02/09 13:49:59;;;;;;;16.80;11.43;;;;;;;;;;5054828;28;20220;-64
2023/02/09 13:52:27;;;;;;;16.90;10.63;;;;;;;;;;5054375;28;20205;-64
2023/02/09 13:54:54;;;;;;;16.10;10.50;;;;;;;;;;5054823;28;20224;-64
2023/02/09 13:57:29;;;;;;;14.23;11.00;;;;;;;;;;5058119;28;20267;-64
2023/02/09 13:59:57;;;;;;;18.52;12.43;;;;;;;;;;5075300;28;20181;-64
2023/02/09 14:02:26;;;;;;;19.50;11.23;;;;;;;;;;5074557;28;20194;-64
2023/02/09 14:04:56;;;;;;;19.52;10.90;;;;;;;;;;5074190;28;20310;-64
2023/02/09 14:07:26;;;;;;;17.95;11.85;;;;;;;;;;5073824;28;20255;-65
2023/02/09 14:09:56;;;;;;;18.75;9.30;;;;;;;;;;5070237;28;20184;-64
2023/02/09 14:17:56;;;;;;;16.75;11.48;;;;;;;;;;5053581;28;20185;-64
2023/02/09 14:20:24;;;;;;;18.75;11.77;;;;;;;;;;5053768;28;20661;-65
2023/02/09 14:22:58;;;;;;;15.18;11.80;;;;;;;;;;5053432;28;20661;-64
2023/02/09 14:25:26;;;;;;;16.35;11.57;;;;;;;;;;5054132;28;20285;-64
2023/02/09 14:27:53;;;;;;;18.85;11.77;;;;;;;;;;5054093;28;20200;-64
2023/02/09 14:30:22;;;;;;;16.38;11.32;;;;;;;;;;5054139;28;20212;-64
2023/02/09 14:32:52;;;;;;;16.80;11.55;;;;;;;;;;5053963;28;20282;-64
2023/02/09 14:35:21;;;;;;;20.83;12.57;;;;;;;;;;5053858;28;20221;-64
2023/02/09 14:37:55;;;;;;;16.13;11.77;;;;;;;;;;5053588;28;20284;-64
2023/02/09 14:40:30;;;;;;;19.63;11.65;;;;;;;;;;5054026;28;20568;-64
2023/02/09 14:42:59;;;;;;;15.23;11.10;;;;;;;;;;5053601;28;20651;-64
2023/02/09 14:45:31;;;;;;;14.10;10.88;;;;;;;;;;5053682;28;20288;-64